sensor_id;sensor_type;location;lat;lon;timestamp;pressure;altitude;pressure_sealevel;temperature;humidity
42705;BME280;28342;42.594;23.414;2024-03-08T00:00:26;94231.25;;;21.82;36.71
42705;BME280;28342;42.594;23.414;2024-03-08T00:02:52;94227.00;;;21.81;36.70
42705;BME280;28342;42.594;23.414;2024-03-08T00:05:19;94235.09;;;21.81;36.79
42705;BME280;28342;42.594;23.414;2024-03-08T00:07:48;94219.66;;;21.77;36.65
42705;BME280;28342;42.594;23.414;2024-03-08T00:10:15;94221.59;;;21.77;37.05
42705;BME280;28342;42.594;23.414;2024-03-08T00:12:44;94226.63;;;21.75;37.13
42705;BME280;28342;42.594;23.414;2024-03-08T00:15:10;94226.22;;;21.76;37.15
42705;BME280;28342;42.594;23.414;2024-03-08T00:17:39;94232.78;;;21.79;37.09
42705;BME280;28342;42.594;23.414;2024-03-08T00:20:06;94216.59;;;21.75;37.06
42705;BME280;28342;42.594;23.414;2024-03-08T00:25:07;94222.00;;;21.75;37.08
42705;BME280;28342;42.594;23.414;2024-03-08T00:27:37;94219.28;;;21.75;36.73
42705;BME280;28342;42.594;23.414;2024-03-08T00:30:03;94224.69;;;21.75;36.70
42705;BME280;28342;42.594;23.414;2024-03-08T00:32:30;94219.66;;;21.74;36.93
42705;BME280;28342;42.594;23.414;2024-03-08T00:34:58;94199.59;;;21.68;36.98
42705;BME280;28342;42.594;23.414;2024-03-08T00:37:24;94208.47;;;21.72;36.73
42705;BME280;28342;42.594;23.414;2024-03-08T00:39:51;94206.53;;;21.72;37.18
42705;BME280;28342;42.594;23.414;2024-03-08T00:42:18;94209.63;;;21.71;36.96
42705;BME280;28342;42.594;23.414;2024-03-08T00:44:56;94205.00;;;21.71;37.01
42705;BME280;28342;42.594;23.414;2024-03-08T00:47:23;94192.66;;;21.67;37.19
42705;BME280;28342;42.594;23.414;2024-03-08T00:49:50;94204.22;;;21.67;37.13
42705;BME280;28342;42.594;23.414;2024-03-08T00:52:16;94201.91;;;21.69;37.04
42705;BME280;28342;42.594;23.414;2024-03-08T00:54:44;94192.28;;;21.68;37.18
42705;BME280;28342;42.594;23.414;2024-03-08T00:57:10;94198.06;;;21.67;37.02
42705;BME280;28342;42.594;23.414;2024-03-08T00:59:38;94188.81;;;21.64;37.14
42705;BME280;28342;42.594;23.414;2024-03-08T01:02:04;94183.41;;;21.64;36.93
42705;BME280;28342;42.594;23.414;2024-03-08T01:04:31;94185.34;;;21.64;37.49
42705;BME280;28342;42.594;23.414;2024-03-08T01:06:58;94174.94;;;21.66;37.30
42705;BME280;28342;42.594;23.414;2024-03-08T01:09:25;94178.00;;;21.71;37.62
42705;BME280;28342;42.594;23.414;2024-03-08T01:11:52;94187.28;;;21.77;37.36
42705;BME280;28342;42.594;23.414;2024-03-08T01:14:19;94183.03;;;21.84;37.48
42705;BME280;28342;42.594;23.414;2024-03-08T01:16:48;94178.00;;;21.86;36.70
42705;BME280;28342;42.594;23.414;2024-03-08T01:19:14;94175.69;;;21.81;36.96
42705;BME280;28342;42.594;23.414;2024-03-08T01:21:42;94182.63;;;21.82;36.62
42705;BME280;28342;42.594;23.414;2024-03-08T01:24:09;94174.94;;;21.80;36.41
42705;BME280;28342;42.594;23.414;2024-03-08T01:26:38;94179.19;;;21.77;36.64
42705;BME280;28342;42.594;23.414;2024-03-08T01:29:28;94133.28;;;21.49;36.87
42705;BME280;28342;42.594;23.414;2024-03-08T01:32:01;94174.13;;;21.72;36.46
42705;BME280;28342;42.594;23.414;2024-03-08T01:34:27;94170.28;;;21.70;37.02
42705;BME280;28342;42.594;23.414;2024-03-08T01:36:58;94154.88;;;21.63;36.91
42705;BME280;28342;42.594;23.414;2024-03-08T01:39:24;94165.28;;;21.65;36.84
42705;BME280;28342;42.594;23.414;2024-03-08T01:41:51;94166.06;;;21.65;37.16
42705;BME280;28342;42.594;23.414;2024-03-08T01:44:19;94167.22;;;21.64;37.00
42705;BME280;28342;42.594;23.414;2024-03-08T01:46:53;94165.69;;;21.63;36.77
42705;BME280;28342;42.594;23.414;2024-03-08T01:49:20;94166.84;;;21.62;37.33
42705;BME280;28342;42.594;23.414;2024-03-08T01:51:48;94169.50;;;21.59;36.85
42705;BME280;28342;42.594;23.414;2024-03-08T01:54:18;94163.34;;;21.58;37.27
42705;BME280;28342;42.594;23.414;2024-03-08T01:56:51;94164.88;;;21.59;37.21
42705;BME280;28342;42.594;23.414;2024-03-08T01:59:19;94160.25;;;21.56;37.50
42705;BME280;28342;42.594;23.414;2024-03-08T02:01:49;94162.19;;;21.56;37.21
42705;BME280;28342;42.594;23.414;2024-03-08T02:04:19;94161.78;;;21.57;37.08
42705;BME280;28342;42.594;23.414;2024-03-08T02:06:47;94156.78;;;21.56;37.28
42705;BME280;28342;42.594;23.414;2024-03-08T02:09:14;94157.19;;;21.54;37.12
42705;BME280;28342;42.594;23.414;2024-03-08T02:11:43;94152.56;;;21.55;37.13
42705;BME280;28342;42.594;23.414;2024-03-08T02:14:08;94164.13;;;21.55;37.32
42705;BME280;28342;42.594;23.414;2024-03-08T02:16:34;94156.03;;;21.52;37.59
42705;BME280;28342;42.594;23.414;2024-03-08T02:19:00;94154.88;;;21.49;37.26
42705;BME280;28342;42.594;23.414;2024-03-08T02:21:31;94166.03;;;21.51;37.19
42705;BME280;28342;42.594;23.414;2024-03-08T02:24:01;94164.88;;;21.52;37.60
42705;BME280;28342;42.594;23.414;2024-03-08T02:26:26;94168.75;;;21.51;37.48
42705;BME280;28342;42.594;23.414;2024-03-08T02:28:52;94154.88;;;21.49;37.60
42705;BME280;28342;42.594;23.414;2024-03-08T02:31:18;94161.81;;;21.50;37.17
42705;BME280;28342;42.594;23.414;2024-03-08T02:33:43;94166.81;;;21.48;37.55
42705;BME280;28342;42.594;23.414;2024-03-08T02:36:09;94171.84;;;21.50;37.27
42705;BME280;28342;42.594;23.414;2024-03-08T02:38:37;94174.16;;;21.47;37.62
42705;BME280;28342;42.594;23.414;2024-03-08T02:41:12;94179.16;;;21.49;37.65
42705;BME280;28342;42.594;23.414;2024-03-08T02:43:38;94180.31;;;21.48;37.34
42705;BME280;28342;42.594;23.414;2024-03-08T02:46:03;94188.78;;;21.46;37.30
42705;BME280;28342;42.594;23.414;2024-03-08T02:48:30;94178.00;;;21.46;37.27
42705;BME280;28342;42.594;23.414;2024-03-08T02:50:56;94177.22;;;21.46;37.25
42705;BME280;28342;42.594;23.414;2024-03-08T02:53:27;94177.22;;;21.46;37.54
42705;BME280;28342;42.594;23.414;2024-03-08T02:55:53;94174.13;;;21.44;37.44
42705;BME280;28342;42.594;23.414;2024-03-08T02:58:22;94178.00;;;21.46;37.37
42705;BME280;28342;42.594;23.414;2024-03-08T03:00:57;94177.97;;;21.43;37.50
42705;BME280;28342;42.594;23.414;2024-03-08T03:03:41;94177.97;;;21.43;37.42
42705;BME280;28342;42.594;23.414;2024-03-08T03:06:07;94177.97;;;21.43;37.60
42705;BME280;28342;42.594;23.414;2024-03-08T03:08:40;94178.75;;;21.40;37.77
42705;BME280;28342;42.594;23.414;2024-03-08T03:11:12;94181.06;;;21.38;37.44
42705;BME280;28342;42.594;23.414;2024-03-08T03:13:39;94183.75;;;21.38;37.46
42705;BME280;28342;42.594;23.414;2024-03-08T03:16:05;94182.22;;;21.40;37.48
42705;BME280;28342;42.594;23.414;2024-03-08T03:18:30;94184.91;;;21.40;37.68
42705;BME280;28342;42.594;23.414;2024-03-08T03:20:58;94181.84;;;21.35;37.61
42705;BME280;28342;42.594;23.414;2024-03-08T03:23:23;94184.13;;;21.40;37.70
42705;BME280;28342;42.594;23.414;2024-03-08T03:25:54;94188.00;;;21.39;37.79
42705;BME280;28342;42.594;23.414;2024-03-08T03:28:22;94174.88;;;21.34;37.80
42705;BME280;28342;42.594;23.414;2024-03-08T03:30:53;94192.63;;;21.38;37.92
42705;BME280;28342;42.594;23.414;2024-03-08T03:33:21;94188.00;;;21.39;37.61
42705;BME280;28342;42.594;23.414;2024-03-08T03:35:47;94200.72;;;21.38;37.96
42705;BME280;28342;42.594;23.414;2024-03-08T03:38:12;94201.88;;;21.37;37.61
42705;BME280;28342;42.594;23.414;2024-03-08T03:40:39;94199.94;;;21.38;37.99
42705;BME280;28342;42.594;23.414;2024-03-08T03:43:06;94199.19;;;21.37;38.15
42705;BME280;28342;42.594;23.414;2024-03-08T03:45:35;94202.63;;;21.38;37.91
42705;BME280;28342;42.594;23.414;2024-03-08T03:48:07;94206.50;;;21.37;37.83
42705;BME280;28342;42.594;23.414;2024-03-08T03:50:36;94205.72;;;21.36;38.05
42705;BME280;28342;42.594;23.414;2024-03-08T03:53:07;94211.91;;;21.37;37.84
42705;BME280;28342;42.594;23.414;2024-03-08T03:55:42;94210.34;;;21.36;37.85
42705;BME280;28342;42.594;23.414;2024-03-08T03:58:11;94213.03;;;21.36;37.74
42705;BME280;28342;42.594;23.414;2024-03-08T04:00:36;94211.13;;;21.33;37.88
42705;BME280;28342;42.594;23.414;2024-03-08T04:03:02;94219.59;;;21.35;38.10
42705;BME280;28342;42.594;23.414;2024-03-08T04:05:28;94220.75;;;21.34;37.98
42705;BME280;28342;42.594;23.414;2024-03-08T04:07:53;94226.94;;;21.34;38.23
42705;BME280;28342;42.594;23.414;2024-03-08T04:10:22;94230.38;;;21.35;37.78
42705;BME280;28342;42.594;23.414;2024-03-08T04:12:47;94221.91;;;21.33;37.79
42705;BME280;28342;42.594;23.414;2024-03-08T04:15:13;94223.44;;;21.34;38.05
42705;BME280;28342;42.594;23.414;2024-03-08T04:17:45;94232.69;;;21.33;38.15
42705;BME280;28342;42.594;23.414;2024-03-08T04:20:11;94227.31;;;21.33;37.91
42705;BME280;28342;42.594;23.414;2024-03-08T04:22:39;94232.69;;;21.33;37.98
42705;BME280;28342;42.594;23.414;2024-03-08T04:25:08;94225.38;;;21.30;38.20
42705;BME280;28342;42.594;23.414;2024-03-08T04:27:36;94231.91;;;21.29;37.86
42705;BME280;28342;42.594;23.414;2024-03-08T04:30:02;94231.94;;;21.32;38.26
42705;BME280;28342;42.594;23.414;2024-03-08T04:32:28;94235.75;;;21.28;38.28
42705;BME280;28342;42.594;23.414;2024-03-08T04:34:57;94241.19;;;21.31;37.73
42705;BME280;28342;42.594;23.414;2024-03-08T04:37:23;94245.81;;;21.31;38.08
42705;BME280;28342;42.594;23.414;2024-03-08T04:39:56;94238.88;;;21.30;38.20
42705;BME280;28342;42.594;23.414;2024-03-08T04:42:29;94242.69;;;21.29;37.92
42705;BME280;28342;42.594;23.414;2024-03-08T04:44:59;94245.78;;;21.27;38.38
42705;BME280;28342;42.594;23.414;2024-03-08T04:47:25;94255.06;;;21.30;38.11
42705;BME280;28342;42.594;23.414;2024-03-08T04:49:51;94251.19;;;21.31;38.33
42705;BME280;28342;42.594;23.414;2024-03-08T04:52:17;94252.34;;;21.30;37.91
42705;BME280;28342;42.594;23.414;2024-03-08T04:54:43;94253.47;;;21.29;37.93
42705;BME280;28342;42.594;23.414;2024-03-08T04:57:09;94257.34;;;21.28;38.29
42705;BME280;28342;42.594;23.414;2024-03-08T04:59:36;94257.34;;;21.28;38.15
42705;BME280;28342;42.594;23.414;2024-03-08T05:02:02;94254.25;;;21.26;38.47
42705;BME280;28342;42.594;23.414;2024-03-08T05:04:31;94261.97;;;21.27;38.20
42705;BME280;28342;42.594;23.414;2024-03-08T05:06:56;94262.72;;;21.28;37.91
42705;BME280;28342;42.594;23.414;2024-03-08T05:09:28;94266.59;;;21.27;38.18
42705;BME280;28342;42.594;23.414;2024-03-08T05:12:03;94266.59;;;21.27;38.22
42705;BME280;28342;42.594;23.414;2024-03-08T05:14:29;94266.59;;;21.27;38.27
42705;BME280;28342;42.594;23.414;2024-03-08T05:17:06;94269.66;;;21.25;38.21
42705;BME280;28342;42.594;23.414;2024-03-08T05:19:32;94269.66;;;21.25;38.05
42705;BME280;28342;42.594;23.414;2024-03-08T05:22:03;94274.28;;;21.25;38.09
42705;BME280;28342;42.594;23.414;2024-03-08T05:24:32;94275.81;;;21.26;38.51
42705;BME280;28342;42.594;23.414;2024-03-08T05:26:58;94282.78;;;21.27;38.28
42705;BME280;28342;42.594;23.414;2024-03-08T05:29:31;94284.28;;;21.24;38.31
42705;BME280;28342;42.594;23.414;2024-03-08T05:31:57;94296.63;;;21.25;38.50
42705;BME280;28342;42.594;23.414;2024-03-08T05:34:26;94295.06;;;21.24;38.36
42705;BME280;28342;42.594;23.414;2024-03-08T05:36:53;94295.88;;;21.25;38.61
42705;BME280;28342;42.594;23.414;2024-03-08T05:39:20;94295.88;;;21.25;38.38
42705;BME280;28342;42.594;23.414;2024-03-08T05:41:49;94297.00;;;21.24;38.22
42705;BME280;28342;42.594;23.414;2024-03-08T05:44:18;94297.75;;;21.21;38.62
42705;BME280;28342;42.594;23.414;2024-03-08T05:46:43;94311.25;;;21.24;38.62
42705;BME280;28342;42.594;23.414;2024-03-08T05:49:09;94314.75;;;21.25;38.36
42705;BME280;28342;42.594;23.414;2024-03-08T05:51:41;94310.09;;;21.22;38.23
42705;BME280;28342;42.594;23.414;2024-03-08T05:54:08;94321.28;;;21.24;38.54
42705;BME280;28342;42.594;23.414;2024-03-08T05:56:41;94317.03;;;21.23;38.63
42705;BME280;28342;42.594;23.414;2024-03-08T05:59:10;94319.72;;;21.23;38.63
42705;BME280;28342;42.594;23.414;2024-03-08T06:01:35;94318.19;;;21.22;38.29
42705;BME280;28342;42.594;23.414;2024-03-08T06:04:05;94322.81;;;21.21;38.30
42705;BME280;28342;42.594;23.414;2024-03-08T06:06:30;94325.50;;;21.21;38.42
42705;BME280;28342;42.594;23.414;2024-03-08T06:08:56;94327.44;;;21.24;38.32
42705;BME280;28342;42.594;23.414;2024-03-08T06:11:22;94332.81;;;21.21;38.29
42705;BME280;28342;42.594;23.414;2024-03-08T06:16:31;94339.75;;;21.22;38.19
42705;BME280;28342;42.594;23.414;2024-03-08T06:19:07;94337.44;;;21.16;37.89
42705;BME280;28342;42.594;23.414;2024-03-08T06:21:42;94344.75;;;21.19;37.94
42705;BME280;28342;42.594;23.414;2024-03-08T06:24:10;94355.94;;;21.22;37.65
42705;BME280;28342;42.594;23.414;2024-03-08T06:26:36;94349.75;;;21.17;37.85
42705;BME280;28342;42.594;23.414;2024-03-08T06:29:05;94348.63;;;21.18;37.86
42705;BME280;28342;42.594;23.414;2024-03-08T06:31:32;94345.16;;;21.18;37.41
42705;BME280;28342;42.594;23.414;2024-03-08T06:34:01;94351.31;;;21.18;37.59
42705;BME280;28342;42.594;23.414;2024-03-08T06:36:27;94358.25;;;21.19;37.48
42705;BME280;28342;42.594;23.414;2024-03-08T06:39:02;94355.16;;;21.21;37.47
42705;BME280;28342;42.594;23.414;2024-03-08T06:41:37;94360.56;;;21.21;37.05
42705;BME280;28342;42.594;23.414;2024-03-08T06:44:05;94349.38;;;21.19;36.94
42705;BME280;28342;42.594;23.414;2024-03-08T06:46:36;94361.34;;;21.22;36.89
42705;BME280;28342;42.594;23.414;2024-03-08T06:49:09;94362.50;;;21.21;36.84
42705;BME280;28342;42.594;23.414;2024-03-08T06:51:36;94372.16;;;21.25;36.59
42705;BME280;28342;42.594;23.414;2024-03-08T06:54:01;94367.91;;;21.24;36.45
42705;BME280;28342;42.594;23.414;2024-03-08T06:56:34;94370.25;;;21.26;36.09
42705;BME280;28342;42.594;23.414;2024-03-08T06:59:02;94376.81;;;21.28;35.93
42705;BME280;28342;42.594;23.414;2024-03-08T07:01:31;94378.38;;;21.29;35.79
42705;BME280;28342;42.594;23.414;2024-03-08T07:03:59;94363.69;;;21.27;36.08
42705;BME280;28342;42.594;23.414;2024-03-08T07:06:27;94370.69;;;21.31;35.91
42705;BME280;28342;42.594;23.414;2024-03-08T07:08:54;94377.63;;;21.36;35.79
42705;BME280;28342;42.594;23.414;2024-03-08T07:11:22;94370.69;;;21.35;35.56
42705;BME280;28342;42.594;23.414;2024-03-08T07:13:53;94382.69;;;21.48;35.32
42705;BME280;28342;42.594;23.414;2024-03-08T07:16:19;94376.22;;;21.70;35.56
42705;BME280;28342;42.594;23.414;2024-03-08T07:18:46;94384.03;;;21.93;35.84
42705;BME280;28342;42.594;23.414;2024-03-08T07:21:12;94378.69;;;22.11;35.88
42705;BME280;28342;42.594;23.414;2024-03-08T07:23:37;94388.75;;;22.28;36.00
42705;BME280;28342;42.594;23.414;2024-03-08T07:26:22;94387.22;;;22.49;35.62
42705;BME280;28342;42.594;23.414;2024-03-08T07:28:48;94387.22;;;22.63;35.06
42705;BME280;28342;42.594;23.414;2024-03-08T07:31:22;94387.22;;;22.77;34.69
42705;BME280;28342;42.594;23.414;2024-03-08T07:33:51;94393.81;;;22.90;34.83
42705;BME280;28342;42.594;23.414;2024-03-08T07:36:17;94393.03;;;23.01;34.66
42705;BME280;28342;42.594;23.414;2024-03-08T07:38:51;94395.69;;;23.11;34.42
42705;BME280;28342;42.594;23.414;2024-03-08T07:41:16;94400.31;;;23.25;33.79
42705;BME280;28342;42.594;23.414;2024-03-08T07:43:42;94394.91;;;23.32;33.67
42705;BME280;28342;42.594;23.414;2024-03-08T07:46:09;94403.38;;;23.41;32.91
42705;BME280;28342;42.594;23.414;2024-03-08T07:48:36;94387.91;;;23.45;33.54
42705;BME280;28342;42.594;23.414;2024-03-08T07:51:02;94399.34;;;23.89;32.51
42705;BME280;28342;42.594;23.414;2024-03-08T07:53:32;94399.22;;;24.21;32.12
42705;BME280;28342;42.594;23.414;2024-03-08T07:56:02;94394.63;;;24.03;31.84
42705;BME280;28342;42.594;23.414;2024-03-08T07:58:28;94386.91;;;24.02;32.40
42705;BME280;28342;42.594;23.414;2024-03-08T08:00:55;94384.56;;;24.07;32.05
42705;BME280;28342;42.594;23.414;2024-03-08T08:03:23;94389.00;;;24.46;31.38
42705;BME280;28342;42.594;23.414;2024-03-08T08:05:58;94396.84;;;24.30;31.65
42705;BME280;28342;42.594;23.414;2024-03-08T08:08:25;94407.28;;;24.28;31.33
42705;BME280;28342;42.594;23.414;2024-03-08T08:10:53;94392.19;;;24.27;31.33
42705;BME280;28342;42.594;23.414;2024-03-08T08:13:20;94394.91;;;24.30;31.58
42705;BME280;28342;42.594;23.414;2024-03-08T08:15:46;94397.22;;;24.32;31.20
42705;BME280;28342;42.594;23.414;2024-03-08T08:18:12;94389.72;;;24.50;31.03
42705;BME280;28342;42.594;23.414;2024-03-08T08:20:39;94390.09;;;25.04;30.83
